createdAt,value
2022-12-01T00:00:44.653Z,0.00
2022-12-01T00:01:44.744Z,0.00
2022-12-01T00:02:44.737Z,0.00
2022-12-01T00:03:44.546Z,0.00
2022-12-01T00:04:44.531Z,0.00
2022-12-01T00:05:44.514Z,0.00
2022-12-01T00:06:44.495Z,0.00
2022-12-01T00:07:44.554Z,0.00
2022-12-01T00:08:44.474Z,0.00
2022-12-01T00:09:44.479Z,0.00
2022-12-01T00:10:44.473Z,0.00
2022-12-01T00:11:44.463Z,0.00
2022-12-01T00:12:44.446Z,0.00
2022-12-01T00:13:44.409Z,0.00
2022-12-01T00:14:44.418Z,0.00
2022-12-01T00:15:44.412Z,0.00
2022-12-01T00:16:44.587Z,0.00
2022-12-01T00:17:44.407Z,0.00
2022-12-01T00:18:44.376Z,0.00
2022-12-01T00:19:44.351Z,0.00
2022-12-01T00:20:44.384Z,0.00
2022-12-01T00:21:44.436Z,0.00
2022-12-01T00:22:44.332Z,0.00
2022-12-01T00:23:44.300Z,0.00
2022-12-01T00:24:44.324Z,0.00
2022-12-01T00:25:44.294Z,0.00
2022-12-01T00:26:44.306Z,0.00
2022-12-01T00:27:44.277Z,0.00
2022-12-01T00:28:44.270Z,0.00
2022-12-01T00:29:44.248Z,0.00
2022-12-01T00:30:44.242Z,0.00
2022-12-01T00:31:44.277Z,0.00
2022-12-01T00:32:44.219Z,0.00
2022-12-01T00:33:44.205Z,0.00
2022-12-01T00:34:44.200Z,0.00
2022-12-01T00:35:44.207Z,0.00
2022-12-01T00:36:44.175Z,0.00
2022-12-01T00:37:44.180Z,0.00
2022-12-01T00:38:44.142Z,0.00
2022-12-01T00:39:44.147Z,0.00
2022-12-01T00:40:44.113Z,0.00
2022-12-01T00:41:44.135Z,0.00
2022-12-01T00:42:44.090Z,0.00
2022-12-01T00:43:44.096Z,0.00
2022-12-01T00:44:44.114Z,0.00
2022-12-01T00:45:44.161Z,0.00
2022-12-01T00:46:44.073Z,0.00
2022-12-01T00:47:44.065Z,0.00
2022-12-01T00:48:44.044Z,0.00
2022-12-01T00:49:44.048Z,0.00
2022-12-01T00:50:44.026Z,0.00
2022-12-01T00:51:44.019Z,0.00
2022-12-01T00:52:44.047Z,0.00
2022-12-01T00:53:44.027Z,0.00
2022-12-01T00:54:43.980Z,0.00
2022-12-01T00:55:43.961Z,0.00
2022-12-01T00:56:43.946Z,0.00
2022-12-01T00:57:43.964Z,0.00
2022-12-01T00:58:43.950Z,0.00
2022-12-01T00:59:43.905Z,0.00
2022-12-01T01:00:43.906Z,0.00
2022-12-01T01:01:43.948Z,0.00
2022-12-01T01:02:44.023Z,0.00
2022-12-01T01:03:43.934Z,0.00
2022-12-01T01:04:43.856Z,0.00
2022-12-01T01:05:43.839Z,0.00
2022-12-01T01:06:43.838Z,0.00
2022-12-01T01:07:43.881Z,0.00
2022-12-01T01:08:43.808Z,0.00
2022-12-01T01:09:44.516Z,0.00
2022-12-01T01:10:43.831Z,0.00
2022-12-01T01:11:43.775Z,0.00
2022-12-01T01:12:43.763Z,0.00
2022-12-01T01:13:43.756Z,0.00
2022-12-01T01:14:43.743Z,0.00
2022-12-01T01:15:43.742Z,0.00
2022-12-01T01:16:43.803Z,0.00
2022-12-01T01:17:43.698Z,0.00
2022-12-01T01:18:43.699Z,0.00
2022-12-01T01:19:43.692Z,0.00
2022-12-01T01:20:43.695Z,0.00
2022-12-01T01:21:43.682Z,0.00
2022-12-01T01:22:43.698Z,0.00
2022-12-01T01:23:43.714Z,0.00
2022-12-01T01:24:43.810Z,0.00
2022-12-01T01:25:43.633Z,0.00
2022-12-01T01:26:43.623Z,0.00
2022-12-01T01:27:43.633Z,0.00
2022-12-01T01:28:43.623Z,0.00
2022-12-01T01:29:43.576Z,0.00
2022-12-01T01:30:43.590Z,0.00
2022-12-01T01:31:43.567Z,0.00
2022-12-01T01:32:43.564Z,0.00
2022-12-01T01:33:43.548Z,0.00
2022-12-01T01:34:43.557Z,0.00
2022-12-01T01:35:43.515Z,0.00
2022-12-01T01:36:43.516Z,0.00
2022-12-01T01:37:43.483Z,0.00
2022-12-01T01:38:43.492Z,0.00
2022-12-01T01:39:43.485Z,0.00
2022-12-01T01:40:43.461Z,0.00
2022-12-01T01:41:43.469Z,0.00
2022-12-01T01:42:43.462Z,0.00
2022-12-01T01:43:43.468Z,0.00
2022-12-01T01:44:43.425Z,0.00
2022-12-01T01:45:43.499Z,0.00
2022-12-01T01:46:43.404Z,0.00
2022-12-01T01:47:43.455Z,0.00
2022-12-01T01:48:43.380Z,0.00
2022-12-01T01:49:43.389Z,0.00
2022-12-01T01:50:43.339Z,0.00
2022-12-01T01:51:43.366Z,0.00
2022-12-01T01:52:43.345Z,0.00
2022-12-01T01:53:43.343Z,0.00
2022-12-01T01:54:43.347Z,0.00
2022-12-01T01:55:43.316Z,0.00
2022-12-01T01:56:43.294Z,0.00
2022-12-01T01:57:49.859Z,0.00
2022-12-01T01:58:43.272Z,0.00
2022-12-01T01:59:43.270Z,0.00
2022-12-01T02:00:43.217Z,0.00
2022-12-01T02:01:43.345Z,0.00
2022-12-01T02:02:43.268Z,0.00
2022-12-01T02:03:43.278Z,0.00
2022-12-01T02:04:43.189Z,0.00
2022-12-01T02:05:43.201Z,0.00
2022-12-01T02:06:43.170Z,0.00
2022-12-01T02:07:43.240Z,0.00
2022-12-01T02:08:43.165Z,0.00
2022-12-01T02:09:43.185Z,0.00
2022-12-01T02:10:43.158Z,0.00
2022-12-01T02:11:43.142Z,0.00
2022-12-01T02:12:43.124Z,0.00
2022-12-01T02:13:43.100Z,0.00
2022-12-01T02:14:43.127Z,0.00
2022-12-01T02:15:43.115Z,0.00
2022-12-01T02:16:43.172Z,0.00
2022-12-01T02:17:43.071Z,0.00
2022-12-01T02:18:43.098Z,0.00
2022-12-01T02:19:43.032Z,0.00
2022-12-01T02:20:43.035Z,0.00
2022-12-01T02:21:43.034Z,0.00
2022-12-01T02:22:43.009Z,0.00
2022-12-01T02:23:43.000Z,0.00
2022-12-01T02:24:43.001Z,0.00
2022-12-01T02:25:43.069Z,0.00
2022-12-01T02:26:42.942Z,0.00
2022-12-01T02:27:50.007Z,0.00
2022-12-01T02:28:42.949Z,0.00
2022-12-01T02:29:43.150Z,0.00
2022-12-01T02:30:42.937Z,0.00
2022-12-01T02:31:42.950Z,0.00
2022-12-01T02:32:42.909Z,0.00
2022-12-01T02:33:42.998Z,0.00
2022-12-01T02:34:42.868Z,0.00
2022-12-01T02:35:42.878Z,0.00
2022-12-01T02:36:42.863Z,0.00
2022-12-01T02:37:42.824Z,0.00
2022-12-01T02:38:42.882Z,0.00
2022-12-01T02:39:42.825Z,0.00
2022-12-01T02:40:42.794Z,0.00
2022-12-01T02:41:42.800Z,0.00
2022-12-01T02:42:42.802Z,0.00
2022-12-01T02:43:42.795Z,0.00
2022-12-01T02:44:42.770Z,0.00
2022-12-01T02:45:42.857Z,0.00
2022-12-01T02:46:42.778Z,0.00
2022-12-01T02:47:49.263Z,0.00
2022-12-01T02:48:42.727Z,0.00
2022-12-01T02:49:42.739Z,0.00
2022-12-01T02:50:42.695Z,0.00
2022-12-01T02:51:42.685Z,0.00
2022-12-01T02:52:42.686Z,0.00
2022-12-01T02:53:42.675Z,0.00
2022-12-01T02:54:42.652Z,0.00
2022-12-01T02:55:42.667Z,0.00
2022-12-01T02:56:42.711Z,0.00
2022-12-01T02:57:42.687Z,0.00
2022-12-01T02:58:42.663Z,0.00
2022-12-01T02:59:42.617Z,0.00
2022-12-01T03:00:42.607Z,0.00
2022-12-01T03:01:42.688Z,0.00
2022-12-01T03:02:42.651Z,0.00
2022-12-01T03:03:42.545Z,0.00
2022-12-01T03:04:42.544Z,0.00
2022-12-01T03:05:42.558Z,0.00
2022-12-01T03:06:42.542Z,0.00
2022-12-01T03:07:49.071Z,0.00
2022-12-01T03:08:42.489Z,0.00
2022-12-01T03:09:42.492Z,0.00
2022-12-01T03:10:42.489Z,0.00
2022-12-01T03:11:42.487Z,0.00
2022-12-01T03:12:42.449Z,0.00
2022-12-01T03:13:42.454Z,0.00
2022-12-01T03:14:42.483Z,0.00
2022-12-01T03:15:42.551Z,0.00
2022-12-01T03:16:42.402Z,0.00
2022-12-01T03:17:42.427Z,0.00
2022-12-01T03:18:42.373Z,0.00
2022-12-01T03:19:42.372Z,0.00
2022-12-01T03:20:42.397Z,0.00
2022-12-01T03:21:42.384Z,0.00
2022-12-01T03:22:42.351Z,0.00
2022-12-01T03:23:42.355Z,0.00
2022-12-01T03:24:42.359Z,0.00
2022-12-01T03:25:42.340Z,0.00
2022-12-01T03:26:42.304Z,0.00
2022-12-01T03:28:00.586Z,0.00
2022-12-01T03:28:42.285Z,0.00
2022-12-01T03:29:42.272Z,0.00
2022-12-01T03:30:42.272Z,0.00
2022-12-01T03:31:42.286Z,0.00
2022-12-01T03:32:42.238Z,0.00
2022-12-01T03:33:42.231Z,0.00
2022-12-01T03:34:42.212Z,0.00
2022-12-01T03:35:42.225Z,0.00
2022-12-01T03:36:42.242Z,0.00
2022-12-01T03:37:48.695Z,0.00
2022-12-01T03:38:42.216Z,0.00
2022-12-01T03:39:42.155Z,0.00
2022-12-01T03:40:42.174Z,0.00
2022-12-01T03:41:42.158Z,0.00
2022-12-01T03:42:42.149Z,0.00
2022-12-01T03:43:42.140Z,0.00
2022-12-01T03:44:42.137Z,0.00
2022-12-01T03:45:42.112Z,0.00
2022-12-01T03:46:42.165Z,0.00
2022-12-01T03:47:42.097Z,0.00
2022-12-01T03:48:42.103Z,0.00
2022-12-01T03:49:42.114Z,0.00
2022-12-01T03:50:42.073Z,0.00
2022-12-01T03:51:42.036Z,0.00
2022-12-01T03:52:42.033Z,0.00
2022-12-01T03:53:42.041Z,0.00
2022-12-01T03:54:42.000Z,0.00
2022-12-01T03:55:42.000Z,0.00
2022-12-01T03:56:41.985Z,0.00
2022-12-01T03:57:41.971Z,0.00
2022-12-01T03:58:42.054Z,0.00
2022-12-01T03:59:41.933Z,0.00
2022-12-01T04:00:41.958Z,0.00
2022-12-01T04:01:42.037Z,0.00
2022-12-01T04:02:41.990Z,0.00
2022-12-01T04:03:41.923Z,0.00
2022-12-01T04:04:41.892Z,0.00
2022-12-01T04:05:41.873Z,0.00
2022-12-01T04:06:41.881Z,0.00
2022-12-01T04:07:41.897Z,0.00
2022-12-01T04:08:41.883Z,0.00
2022-12-01T04:09:41.841Z,0.00
2022-12-01T04:10:41.811Z,0.00
2022-12-01T04:11:41.841Z,0.00
2022-12-01T04:12:41.808Z,0.00
2022-12-01T04:13:41.805Z,0.00
2022-12-01T04:14:41.776Z,0.00
2022-12-01T04:15:41.830Z,0.00
2022-12-01T04:16:41.751Z,0.00
2022-12-01T04:17:41.752Z,0.00
2022-12-01T04:18:41.732Z,0.00
2022-12-01T04:19:41.730Z,0.00
2022-12-01T04:20:41.721Z,0.00
2022-12-01T04:21:41.717Z,0.00
2022-12-01T04:22:41.730Z,0.00
2022-12-01T04:23:41.695Z,0.00
2022-12-01T04:24:41.691Z,0.00
2022-12-01T04:25:41.681Z,0.00
2022-12-01T04:26:41.634Z,0.00
2022-12-01T04:27:41.643Z,0.00
2022-12-01T04:28:41.618Z,0.00
2022-12-01T04:29:41.678Z,0.00
2022-12-01T04:30:41.593Z,0.00
2022-12-01T04:31:41.674Z,0.00
2022-12-01T04:32:41.568Z,0.00
2022-12-01T04:33:41.568Z,0.00
2022-12-01T04:34:41.577Z,0.00
2022-12-01T04:35:41.576Z,0.00
2022-12-01T04:36:41.549Z,0.00
2022-12-01T04:37:48.040Z,0.00
2022-12-01T04:38:41.506Z,0.00
2022-12-01T04:39:41.530Z,0.00
2022-12-01T04:40:41.485Z,0.00
2022-12-01T04:41:41.503Z,0.00
2022-12-01T04:42:41.473Z,0.00
2022-12-01T04:43:41.495Z,0.00
2022-12-01T04:44:41.469Z,0.00
2022-12-01T04:45:42.803Z,0.00
2022-12-01T04:46:41.651Z,0.00
2022-12-01T04:47:41.439Z,0.00
2022-12-01T04:48:41.408Z,0.00
2022-12-01T04:49:41.417Z,0.00
2022-12-01T04:50:41.404Z,0.00
2022-12-01T04:51:41.399Z,0.00
2022-12-01T04:52:41.352Z,0.00
2022-12-01T04:53:41.366Z,0.00
2022-12-01T04:54:41.346Z,0.00
2022-12-01T04:55:41.351Z,0.00
2022-12-01T04:56:41.360Z,0.00
2022-12-01T04:57:41.324Z,0.00
2022-12-01T04:58:41.299Z,0.00
2022-12-01T04:59:41.312Z,0.00
2022-12-01T05:00:41.424Z,0.00
2022-12-01T05:01:41.353Z,0.00
2022-12-01T05:02:41.248Z,0.00
2022-12-01T05:03:41.242Z,0.00
2022-12-01T05:04:41.235Z,0.00
2022-12-01T05:05:41.246Z,0.00
2022-12-01T05:06:41.210Z,0.00
2022-12-01T05:07:41.242Z,0.00
2022-12-01T05:08:41.190Z,0.00
2022-12-01T05:09:41.164Z,0.00
2022-12-01T05:10:41.170Z,0.00
2022-12-01T05:11:41.164Z,0.00
2022-12-01T05:12:41.146Z,0.00
2022-12-01T05:13:41.141Z,0.00
2022-12-01T05:14:41.147Z,0.00
2022-12-01T05:15:41.131Z,0.00
2022-12-01T05:16:41.239Z,0.00
2022-12-01T05:17:41.112Z,0.00
2022-12-01T05:18:41.254Z,0.00
2022-12-01T05:19:41.077Z,0.00
2022-12-01T05:20:41.081Z,0.00
2022-12-01T05:21:41.797Z,0.00
2022-12-01T05:23:04.354Z,0.00
2022-12-01T05:23:41.019Z,0.00
2022-12-01T05:24:41.048Z,0.00
2022-12-01T05:25:41.003Z,0.00
2022-12-01T05:26:41.011Z,0.00
2022-12-01T05:27:40.970Z,0.00
2022-12-01T05:28:41.025Z,0.00
2022-12-01T05:29:40.966Z,0.00
2022-12-01T05:30:40.992Z,0.00
2022-12-01T05:31:41.154Z,0.00
2022-12-01T05:32:40.931Z,0.00
2022-12-01T05:33:40.904Z,0.00
2022-12-01T05:34:40.914Z,0.00
2022-12-01T05:35:40.919Z,0.00
2022-12-01T05:36:40.926Z,0.00
2022-12-01T05:37:40.890Z,0.00
2022-12-01T05:38:40.861Z,0.00
2022-12-01T05:39:40.877Z,0.00
2022-12-01T05:40:40.833Z,0.00
2022-12-01T05:41:40.858Z,0.00
2022-12-01T05:42:40.846Z,0.00
2022-12-01T05:43:40.808Z,0.00
2022-12-01T05:44:40.794Z,0.00
2022-12-01T05:45:40.901Z,0.00
2022-12-01T05:46:40.788Z,0.00
2022-12-01T05:47:47.338Z,0.00
2022-12-01T05:48:40.758Z,0.00
2022-12-01T05:49:40.993Z,0.00
2022-12-01T05:50:40.980Z,0.00
2022-12-01T05:51:40.715Z,0.00
2022-12-01T05:52:40.711Z,0.00
2022-12-01T05:53:40.711Z,0.00
2022-12-01T05:54:40.673Z,0.00
2022-12-01T05:55:40.701Z,0.00
2022-12-01T05:56:40.653Z,0.00
2022-12-01T05:57:40.672Z,0.00
2022-12-01T05:58:40.680Z,0.00
2022-12-01T05:59:40.635Z,0.00
2022-12-01T06:00:45.582Z,0.00
2022-12-01T06:01:40.729Z,0.00
2022-12-01T06:02:40.682Z,0.00
2022-12-01T06:03:40.592Z,0.00
2022-12-01T06:04:40.586Z,0.00
2022-12-01T06:05:40.596Z,0.00
2022-12-01T06:06:40.575Z,0.00
2022-12-01T06:07:47.143Z,0.00
2022-12-01T06:08:40.530Z,0.00
2022-12-01T06:09:40.541Z,0.00
2022-12-01T06:10:40.527Z,0.00
2022-12-01T06:11:40.521Z,0.00
2022-12-01T06:12:40.482Z,0.00
2022-12-01T06:13:40.474Z,0.00
2022-12-01T06:14:40.484Z,0.00
2022-12-01T06:15:40.455Z,0.00
2022-12-01T06:16:40.484Z,0.00
2022-12-01T06:17:40.739Z,0.00
2022-12-01T06:18:40.441Z,0.00
2022-12-01T06:19:40.445Z,0.00
2022-12-01T06:20:40.424Z,0.00
2022-12-01T06:21:40.431Z,0.00
2022-12-01T06:22:40.386Z,0.00
2022-12-01T06:23:40.378Z,0.00
2022-12-01T06:24:40.363Z,0.00
2022-12-01T06:25:40.376Z,0.00
2022-12-01T06:26:40.349Z,0.00
2022-12-01T06:27:46.876Z,0.00
2022-12-01T06:28:40.331Z,0.00
2022-12-01T06:29:42.263Z,0.00
2022-12-01T06:30:40.311Z,0.00
2022-12-01T06:31:40.354Z,0.00
2022-12-01T06:32:40.296Z,0.00
2022-12-01T06:33:40.320Z,0.00
2022-12-01T06:34:40.241Z,0.00
2022-12-01T06:35:40.248Z,0.00
2022-12-01T06:36:40.237Z,0.00
2022-12-01T06:37:40.240Z,0.00
2022-12-01T06:38:40.225Z,0.00
2022-12-01T06:39:40.209Z,4.00
2022-12-01T06:40:40.192Z,4.00
2022-12-01T06:41:40.192Z,4.00
2022-12-01T06:42:40.180Z,0.00
2022-12-01T06:43:40.150Z,4.00
2022-12-01T06:44:40.156Z,4.00
2022-12-01T06:45:40.169Z,4.00
2022-12-01T06:46:40.378Z,8.00
2022-12-01T06:47:40.136Z,8.00
2022-12-01T06:48:40.112Z,8.00
2022-12-01T06:49:40.120Z,8.00
2022-12-01T06:50:40.090Z,12.00
2022-12-01T06:51:40.115Z,12.00
2022-12-01T06:52:40.233Z,20.00
2022-12-01T06:53:40.079Z,20.00
2022-12-01T06:54:40.036Z,24.00
2022-12-01T06:55:40.041Z,24.00
2022-12-01T06:56:40.034Z,28.00
2022-12-01T06:57:40.033Z,28.00
2022-12-01T06:58:40.013Z,36.00
2022-12-01T06:59:39.984Z,40.00
2022-12-01T07:00:39.993Z,48.00
2022-12-01T07:01:40.090Z,56.00
2022-12-01T07:02:40.093Z,72.00
2022-12-01T07:03:40.167Z,84.00
2022-12-01T07:04:40.027Z,100.00
2022-12-01T07:05:39.929Z,96.00
2022-12-01T07:06:39.927Z,80.00
2022-12-01T07:07:39.981Z,64.00
2022-12-01T07:08:39.904Z,72.00
2022-12-01T07:09:40.783Z,84.00
2022-12-01T07:10:40.818Z,84.00
2022-12-01T07:11:39.866Z,80.00
2022-12-01T07:12:39.862Z,88.00
2022-12-01T07:13:39.866Z,100.00
2022-12-01T07:14:39.834Z,108.00
2022-12-01T07:15:39.824Z,128.00
2022-12-01T07:16:39.879Z,128.00
2022-12-01T07:17:39.807Z,136.00
2022-12-01T07:18:39.807Z,144.00
2022-12-01T07:19:39.781Z,140.00
2022-12-01T07:20:39.784Z,140.00
2022-12-01T07:21:39.762Z,164.00
2022-12-01T07:22:39.761Z,196.00
2022-12-01T07:23:39.730Z,212.00
2022-12-01T07:24:39.942Z,228.00
2022-12-01T07:25:39.732Z,232.00
2022-12-01T07:26:39.699Z,276.00
2022-12-01T07:27:39.698Z,332.00
2022-12-01T07:28:39.692Z,348.00
2022-12-01T07:29:39.886Z,344.00
2022-12-01T07:30:39.723Z,352.00
2022-12-01T07:31:39.692Z,360.00
2022-12-01T07:32:39.647Z,368.00
2022-12-01T07:33:39.834Z,372.00
2022-12-01T07:34:39.645Z,360.00
2022-12-01T07:35:40.383Z,368.00
2022-12-01T07:36:39.588Z,368.00
2022-12-01T07:37:39.567Z,364.00
2022-12-01T07:38:39.596Z,352.00
2022-12-01T07:39:39.610Z,312.00
2022-12-01T07:40:39.535Z,288.00
2022-12-01T07:41:39.521Z,256.00
2022-12-01T07:42:39.524Z,248.00
2022-12-01T07:43:39.527Z,232.00
2022-12-01T07:44:39.514Z,232.00
2022-12-01T07:45:39.609Z,292.00
2022-12-01T07:46:39.530Z,288.00
2022-12-01T07:47:39.454Z,252.00
2022-12-01T07:48:40.422Z,248.00
2022-12-01T07:49:39.457Z,276.00
2022-12-01T07:50:39.447Z,296.00
2022-12-01T07:51:39.447Z,296.00
2022-12-01T07:52:39.415Z,292.00
2022-12-01T07:53:39.390Z,352.00
2022-12-01T07:54:39.386Z,380.00
2022-12-01T07:55:39.410Z,368.00
2022-12-01T07:56:39.370Z,364.00
2022-12-01T07:57:39.355Z,376.00
2022-12-01T07:58:39.393Z,344.00
2022-12-01T07:59:39.332Z,336.00
2022-12-01T08:00:39.460Z,364.00
2022-12-01T08:01:44.245Z,360.00
2022-12-01T08:02:39.367Z,388.00
2022-12-01T08:03:39.294Z,376.00
2022-12-01T08:04:39.271Z,368.00
2022-12-01T08:05:39.291Z,344.00
2022-12-01T08:06:39.333Z,324.00
2022-12-01T08:07:39.368Z,344.00
2022-12-01T08:08:39.250Z,380.00
2022-12-01T08:09:39.272Z,392.00
2022-12-01T08:10:39.221Z,420.00
2022-12-01T08:11:39.240Z,360.00
2022-12-01T08:12:40.088Z,344.00
2022-12-01T08:13:39.233Z,328.00
2022-12-01T08:14:39.193Z,336.00
2022-12-01T08:15:39.237Z,344.00
2022-12-01T08:16:39.374Z,360.00
2022-12-01T08:17:39.165Z,424.00
2022-12-01T08:18:39.361Z,424.00
2022-12-01T08:19:39.135Z,428.00
2022-12-01T08:20:39.121Z,488.00
2022-12-01T08:21:39.125Z,604.00
2022-12-01T08:22:39.116Z,656.00
2022-12-01T08:23:39.069Z,700.00
2022-12-01T08:24:39.068Z,684.00
2022-12-01T08:25:39.070Z,728.00
2022-12-01T08:26:39.037Z,744.00
2022-12-01T08:27:39.052Z,768.00
2022-12-01T08:28:39.020Z,736.00
2022-12-01T08:29:39.253Z,740.00
2022-12-01T08:30:39.022Z,828.00
2022-12-01T08:31:39.285Z,892.00
2022-12-01T08:32:39.827Z,916.00
2022-12-01T08:33:38.955Z,964.00
2022-12-01T08:34:38.959Z,1052.00
2022-12-01T08:35:38.936Z,1064.00
2022-12-01T08:36:38.956Z,1168.00
2022-12-01T08:37:39.223Z,1344.00
2022-12-01T08:38:39.315Z,1392.00
2022-12-01T08:39:39.146Z,1484.00
2022-12-01T08:40:39.503Z,1500.00
2022-12-01T08:41:38.898Z,1476.00
2022-12-01T08:42:38.878Z,1444.00
2022-12-01T08:43:57.140Z,1440.00
2022-12-01T08:44:38.963Z,1420.00
2022-12-01T08:45:38.833Z,1300.00
2022-12-01T08:46:39.448Z,1256.00
2022-12-01T08:47:38.826Z,1224.00
2022-12-01T08:48:40.773Z,1200.00
2022-12-01T08:49:38.778Z,1120.00
2022-12-01T08:50:39.819Z,1076.00
2022-12-01T08:51:38.775Z,1056.00
2022-12-01T08:52:38.745Z,1116.00
2022-12-01T08:53:44.009Z,1188.00
2022-12-01T08:54:38.753Z,1148.00
2022-12-01T08:55:38.710Z,1072.00
2022-12-01T08:56:38.710Z,1104.00
2022-12-01T08:57:38.708Z,1180.00
2022-12-01T08:58:38.675Z,1312.00
2022-12-01T08:59:38.911Z,1464.00
2022-12-01T09:00:38.878Z,1596.00
2022-12-01T09:01:38.781Z,1484.00
2022-12-01T09:02:38.722Z,1380.00
2022-12-01T09:03:38.894Z,1272.00
2022-12-01T09:04:38.634Z,1252.00
2022-12-01T09:05:39.358Z,1272.00
2022-12-01T09:06:39.368Z,1296.00
2022-12-01T09:07:38.653Z,1296.00
2022-12-01T09:08:41.685Z,1284.00
2022-12-01T09:09:40.170Z,1356.00
2022-12-01T09:10:39.325Z,1380.00
2022-12-01T09:11:38.594Z,1272.00
2022-12-01T09:12:43.209Z,1260.00
2022-12-01T09:13:38.513Z,1288.00
2022-12-01T09:14:38.540Z,1304.00
2022-12-01T09:15:38.512Z,1340.00
2022-12-01T09:16:38.596Z,1332.00
2022-12-01T09:17:38.491Z,1316.00
2022-12-01T09:18:39.438Z,1252.00
2022-12-01T09:19:38.699Z,1220.00
2022-12-01T09:20:39.378Z,1200.00
2022-12-01T09:21:38.485Z,1132.00
2022-12-01T09:22:39.357Z,1156.00
2022-12-01T09:23:39.350Z,1152.00
2022-12-01T09:24:39.356Z,1180.00
2022-12-01T09:25:44.261Z,1144.00
2022-12-01T09:26:38.395Z,1096.00
2022-12-01T09:27:38.565Z,1060.00
2022-12-01T09:28:39.751Z,1040.00
2022-12-01T09:29:38.368Z,1008.00
2022-12-01T09:30:38.388Z,972.00
2022-12-01T09:31:38.375Z,968.00
2022-12-01T09:32:38.874Z,1020.00
2022-12-01T09:33:44.527Z,1084.00
2022-12-01T09:34:38.294Z,1088.00
2022-12-01T09:35:38.306Z,1160.00
2022-12-01T09:36:38.296Z,1276.00
2022-12-01T09:37:39.526Z,1356.00
2022-12-01T09:38:38.258Z,1452.00
2022-12-01T09:39:38.960Z,1380.00
2022-12-01T09:40:39.826Z,1428.00
2022-12-01T09:41:38.245Z,1452.00
2022-12-01T09:42:38.207Z,1472.00
2022-12-01T09:44:00.522Z,1464.00
2022-12-01T09:44:38.213Z,1436.00
2022-12-01T09:45:39.317Z,1380.00
2022-12-01T09:46:38.264Z,1240.00
2022-12-01T09:47:38.368Z,1236.00
2022-12-01T09:48:38.139Z,1252.00
2022-12-01T09:49:38.853Z,1360.00
2022-12-01T09:50:38.149Z,1516.00
2022-12-01T09:51:39.672Z,1632.00
2022-12-01T09:52:38.176Z,1632.00
2022-12-01T09:53:38.094Z,1660.00
2022-12-01T09:54:38.076Z,1724.00
2022-12-01T09:55:38.107Z,1608.00
2022-12-01T09:56:38.082Z,1584.00
2022-12-01T09:57:38.056Z,1456.00
2022-12-01T09:58:38.037Z,1468.00
2022-12-01T09:59:56.507Z,1444.00
2022-12-01T10:00:38.080Z,1312.00
2022-12-01T10:01:38.002Z,1240.00
2022-12-01T10:02:38.082Z,1304.00
2022-12-01T10:03:39.580Z,1220.00
2022-12-01T10:04:39.399Z,1228.00
2022-12-01T10:05:51.308Z,1248.00
2022-12-01T10:06:44.040Z,1244.00
2022-12-01T10:07:38.915Z,1360.00
2022-12-01T10:08:40.192Z,1376.00
2022-12-01T10:09:37.941Z,1424.00
2022-12-01T10:10:38.897Z,1460.00
2022-12-01T10:11:37.880Z,1380.00
2022-12-01T10:12:39.918Z,1364.00
2022-12-01T10:13:37.884Z,1396.00
2022-12-01T10:14:37.877Z,1432.00
2022-12-01T10:15:38.392Z,1408.00
2022-12-01T10:16:37.890Z,1428.00
2022-12-01T10:17:38.352Z,1508.00
2022-12-01T10:18:37.817Z,1532.00
2022-12-01T10:19:38.393Z,1604.00
2022-12-01T10:20:39.114Z,1688.00
2022-12-01T10:21:37.795Z,1684.00
2022-12-01T10:22:38.969Z,1700.00
2022-12-01T10:23:37.794Z,1876.00
2022-12-01T10:24:37.925Z,2008.00
2022-12-01T10:25:38.455Z,2228.00
2022-12-01T10:26:40.316Z,2316.00
2022-12-01T10:27:44.268Z,2348.00
2022-12-01T10:28:37.702Z,2180.00
2022-12-01T10:29:38.741Z,2088.00
2022-12-01T10:30:38.635Z,2016.00
2022-12-01T10:31:37.765Z,2168.00
2022-12-01T10:32:37.666Z,2224.00
2022-12-01T10:33:37.672Z,2204.00
2022-12-01T10:34:37.635Z,2252.00
2022-12-01T10:35:38.191Z,2108.00
2022-12-01T10:36:37.633Z,1920.00
2022-12-01T10:37:37.670Z,1860.00
2022-12-01T10:38:37.584Z,1896.00
2022-12-01T10:39:40.830Z,1936.00
2022-12-01T10:40:39.935Z,2056.00
2022-12-01T10:41:40.709Z,2276.00
2022-12-01T10:42:37.557Z,2308.00
2022-12-01T10:43:37.540Z,2348.00
2022-12-01T10:44:37.535Z,2592.00
2022-12-01T10:45:38.470Z,2980.00
2022-12-01T10:46:37.517Z,3280.00
2022-12-01T10:47:37.517Z,3344.00
2022-12-01T10:48:38.437Z,3336.00
2022-12-01T10:49:38.630Z,3516.00
2022-12-01T10:50:37.445Z,3668.00
2022-12-01T10:51:37.681Z,3736.00
2022-12-01T10:52:44.100Z,3744.00
2022-12-01T10:53:37.480Z,3792.00
2022-12-01T10:54:38.391Z,3808.00
2022-12-01T10:55:37.414Z,3796.00
2022-12-01T10:56:37.382Z,3768.00
2022-12-01T10:57:38.550Z,3576.00
2022-12-01T10:58:37.376Z,3272.00
2022-12-01T10:59:37.554Z,3088.00
2022-12-01T11:01:39.766Z,3112.00
2022-12-01T11:02:39.057Z,3272.00
2022-12-01T11:03:37.617Z,3464.00
2022-12-01T11:04:37.309Z,3680.00
2022-12-01T11:05:37.503Z,3676.00
2022-12-01T11:06:37.265Z,3532.00
2022-12-01T11:07:37.334Z,3252.00
2022-12-01T11:08:37.290Z,3008.00
2022-12-01T11:09:37.450Z,2936.00
2022-12-01T11:10:37.274Z,3012.00
2022-12-01T11:11:37.234Z,3044.00
2022-12-01T11:12:37.288Z,3000.00
2022-12-01T11:13:37.239Z,3048.00
2022-12-01T11:14:37.546Z,3116.00
2022-12-01T11:15:38.883Z,3100.00
2022-12-01T11:16:37.791Z,3060.00
2022-12-01T11:17:37.163Z,3052.00
2022-12-01T11:18:37.231Z,3136.00
2022-12-01T11:19:37.533Z,3404.00
2022-12-01T11:20:37.985Z,3528.00
2022-12-01T11:21:37.114Z,3524.00
2022-12-01T11:22:37.113Z,3552.00
2022-12-01T11:23:37.085Z,3664.00
2022-12-01T11:24:37.086Z,3956.00
2022-12-01T11:25:37.102Z,4104.00
2022-12-01T11:26:37.110Z,4380.00
2022-12-01T11:27:37.062Z,4600.00
2022-12-01T11:28:37.056Z,4832.00
2022-12-01T11:29:37.039Z,4944.00
2022-12-01T11:30:36.995Z,5164.00
2022-12-01T11:31:37.047Z,5652.00
2022-12-01T11:32:37.024Z,6088.00
2022-12-01T11:33:37.216Z,6184.00
2022-12-01T11:34:37.163Z,6528.00
2022-12-01T11:35:37.910Z,6740.00
2022-12-01T11:36:36.992Z,6752.00
2022-12-01T11:37:37.917Z,6848.00
2022-12-01T11:38:37.009Z,6924.00
2022-12-01T11:39:37.889Z,6952.00
2022-12-01T11:40:36.883Z,7088.00
2022-12-01T11:41:38.132Z,7264.00
2022-12-01T11:42:36.904Z,7396.00
2022-12-01T11:43:38.482Z,7772.00
2022-12-01T11:44:51.354Z,8200.00
2022-12-01T11:45:38.981Z,8388.00
2022-12-01T11:46:37.020Z,8172.00
2022-12-01T11:47:36.812Z,7968.00
2022-12-01T11:48:36.884Z,7948.00
2022-12-01T11:49:41.169Z,7824.00
2022-12-01T11:50:36.811Z,7444.00
2022-12-01T11:51:37.377Z,7064.00
2022-12-01T11:52:39.323Z,7004.00
2022-12-01T11:53:37.430Z,6956.00
2022-12-01T11:54:36.757Z,6812.00
2022-12-01T11:55:36.758Z,6808.00
2022-12-01T11:56:39.269Z,6980.00
2022-12-01T11:57:36.701Z,7048.00
2022-12-01T11:58:36.766Z,6980.00
2022-12-01T11:59:38.842Z,6840.00
2022-12-01T12:00:36.694Z,6740.00
2022-12-01T12:01:36.691Z,6916.00
2022-12-01T12:02:38.074Z,7288.00
2022-12-01T12:03:38.418Z,7800.00
2022-12-01T12:04:37.430Z,8496.00
2022-12-01T12:05:38.348Z,9256.00
2022-12-01T12:06:40.448Z,9852.00
2022-12-01T12:07:38.214Z,10352.00
2022-12-01T12:08:36.689Z,10700.00
2022-12-01T12:09:40.307Z,10768.00
2022-12-01T12:10:36.814Z,10812.00
2022-12-01T12:11:36.777Z,11000.00
2022-12-01T12:12:36.527Z,11856.00
2022-12-01T12:13:37.151Z,14816.00
2022-12-01T12:14:37.648Z,14496.00
2022-12-01T12:15:36.518Z,9784.00
2022-12-01T12:16:36.859Z,11824.00
2022-12-01T12:17:43.270Z,10540.00
2022-12-01T12:18:36.478Z,9356.00
2022-12-01T12:20:00.234Z,8856.00
2022-12-01T12:20:36.515Z,8824.00
2022-12-01T12:21:36.456Z,9176.00
2022-12-01T12:22:36.922Z,9660.00
2022-12-01T12:23:38.583Z,10028.00
2022-12-01T12:24:36.394Z,9940.00
2022-12-01T12:25:36.400Z,10004.00
2022-12-01T12:26:36.387Z,9764.00
2022-12-01T12:27:36.384Z,9656.00
2022-12-01T12:28:36.373Z,9648.00
2022-12-01T12:29:36.349Z,9924.00
2022-12-01T12:30:37.019Z,10132.00
2022-12-01T12:31:36.961Z,9996.00
2022-12-01T12:32:37.589Z,9812.00
2022-12-01T12:33:37.525Z,9648.00
2022-12-01T12:34:36.290Z,9464.00
2022-12-01T12:35:36.959Z,9140.00
2022-12-01T12:36:36.462Z,8856.00
2022-12-01T12:37:42.802Z,8680.00
2022-12-01T12:38:39.165Z,8740.00
2022-12-01T12:39:38.440Z,9364.00
2022-12-01T12:40:36.210Z,10584.00
2022-12-01T12:41:37.446Z,14400.00
2022-12-01T12:42:37.886Z,12056.00
2022-12-01T12:43:36.222Z,9688.00
2022-12-01T12:44:37.518Z,11168.00
2022-12-01T12:45:36.258Z,12720.00
2022-12-01T12:46:36.187Z,11048.00
2022-12-01T12:47:36.168Z,12204.00